Time;durP1;ratioP1;P1;durP2;ratioP2;P2;SDS_P1;SDS_P2;PMS_P1;PMS_P2;Temp;Humidity;BMP_temperature;BMP_pressure;BME280_temperature;BME280_humidity;BME280_pressure;Samples;Min_cycle;Max_cycle;Signal;HPM_P1;HPM_P2
2022/11/22 00:02:05;;;;;;;7.87;1.67;;;6.70;99.90;;;;;;5073410;28;20185;-77
2022/11/22 00:04:30;;;;;;;3.20;1.40;;;6.70;99.90;;;;;;5071811;28;20602;-77
2022/11/22 00:06:56;;;;;;;10.60;1.60;;;6.70;99.90;;;;;;5071892;28;20190;-77
2022/11/22 00:09:21;;;;;;;3.73;1.50;;;6.60;99.90;;;;;;5073319;28;20199;-78
2022/11/22 00:11:47;;;;;;;3.97;1.50;;;6.70;99.90;;;;;;5071907;28;20212;-78
2022/11/22 00:14:12;;;;;;;4.07;1.40;;;6.70;99.90;;;;;;5073648;28;20192;-78
2022/11/22 00:16:38;;;;;;;6.17;1.57;;;6.70;99.90;;;;;;5073647;28;20178;-77
2022/11/22 00:19:03;;;;;;;3.67;1.47;;;6.70;99.90;;;;;;5075478;28;20175;-76
2022/11/22 00:21:29;;;;;;;4.40;1.37;;;6.70;99.90;;;;;;5108622;22;20230;-81
2022/11/22 00:23:57;;;;;;;2.97;1.20;;;6.70;99.90;;;;;;5083899;28;20214;-81
2022/11/22 00:26:24;;;;;;;3.10;1.40;;;6.70;99.90;;;;;;5085223;28;20182;-80
2022/11/22 00:28:49;;;;;;;7.33;1.80;;;6.70;99.90;;;;;;5084505;28;20183;-81
2022/11/22 00:31:15;;;;;;;6.93;1.70;;;6.60;99.90;;;;;;5083850;28;20278;-81
2022/11/22 00:33:41;;;;;;;4.33;1.33;;;6.70;99.90;;;;;;5083937;28;20218;-80
2022/11/22 00:36:06;;;;;;;3.77;1.27;;;6.70;99.90;;;;;;5085036;28;20182;-81
2022/11/22 00:38:32;;;;;;;3.73;1.33;;;6.70;99.90;;;;;;5088238;28;20236;-81
2022/11/22 00:40:57;;;;;;;2.37;1.30;;;6.60;99.90;;;;;;5089439;28;20313;-81
2022/11/22 00:43:25;;;;;;;4.87;1.60;;;6.60;99.90;;;;;;5087890;28;20287;-80
2022/11/22 00:45:51;;;;;;;3.20;1.37;;;6.60;99.90;;;;;;5087390;28;20180;-80
2022/11/22 00:48:16;;;;;;;3.17;1.60;;;6.60;99.90;;;;;;5088167;28;20175;-81
2022/11/22 00:50:42;;;;;;;4.53;1.70;;;6.60;99.90;;;;;;5087923;28;20202;-80
2022/11/22 00:53:07;;;;;;;5.87;1.93;;;6.60;99.90;;;;;;5088988;28;20235;-80
2022/11/22 00:55:33;;;;;;;3.47;1.50;;;6.60;99.90;;;;;;5089473;28;20167;-80
2022/11/22 00:57:59;;;;;;;4.83;1.50;;;6.70;99.90;;;;;;5090058;28;20175;-80
2022/11/22 01:00:24;;;;;;;3.50;1.53;;;6.70;99.90;;;;;;5090394;28;20191;-80
2022/11/22 01:02:50;;;;;;;3.97;1.10;;;6.60;99.90;;;;;;5088998;28;20605;-80
2022/11/22 01:05:16;;;;;;;2.97;1.63;;;6.60;99.90;;;;;;5089819;28;20261;-81
2022/11/22 01:07:43;;;;;;;5.00;1.40;;;6.60;99.90;;;;;;5090188;28;20166;-80
2022/11/22 01:10:09;;;;;;;3.80;1.53;;;6.60;99.90;;;;;;5090829;28;20216;-81
2022/11/22 01:12:34;;;;;;;4.23;1.60;;;6.70;99.90;;;;;;5089620;28;20170;-80
2022/11/22 01:15:00;;;;;;;3.20;1.53;;;6.60;99.90;;;;;;5090864;28;20171;-81
2022/11/22 01:17:26;;;;;;;6.53;1.83;;;6.60;99.90;;;;;;5089537;28;20618;-81
2022/11/22 01:19:52;;;;;;;4.67;1.70;;;6.60;99.90;;;;;;5090504;28;20176;-81
2022/11/22 01:22:17;;;;;;;7.40;1.90;;;6.70;99.90;;;;;;5089004;28;20178;-80
2022/11/22 01:24:43;;;;;;;2.80;1.33;;;6.60;99.90;;;;;;5089247;28;20261;-80
2022/11/22 01:27:08;;;;;;;3.53;1.53;;;6.70;99.90;;;;;;5089628;28;20191;-81
2022/11/22 01:29:34;;;;;;;3.47;1.87;;;6.70;99.90;;;;;;5096315;28;20175;-81
2022/11/22 01:31:59;;;;;;;3.93;1.70;;;6.70;99.90;;;;;;5096299;28;20266;-81
2022/11/22 01:34:25;;;;;;;6.73;1.63;;;6.70;99.90;;;;;;5085139;28;20174;-81
2022/11/22 01:36:50;;;;;;;6.20;1.60;;;6.70;99.90;;;;;;5091087;28;20181;-81
2022/11/22 01:39:16;;;;;;;4.87;2.10;;;6.70;99.90;;;;;;5096759;28;20159;-81
2022/11/22 01:41:41;;;;;;;5.33;1.90;;;6.70;99.90;;;;;;5096454;28;20266;-81
2022/11/22 01:44:22;;;;;;;4.27;1.80;;;6.70;99.90;;;;;;5088384;28;20203;-80
2022/11/22 01:46:55;;;;;;;7.90;2.43;;;6.70;99.90;;;;;;5088124;28;20170;-81
2022/11/22 01:49:41;;;;;;;4.17;1.70;;;6.70;99.90;;;;;;5087714;28;20186;-80
2022/11/22 01:52:19;;;;;;;3.30;1.63;;;6.60;99.90;;;;;;5089217;28;20166;-81
2022/11/22 01:54:49;;;;;;;4.60;1.83;;;6.70;99.90;;;;;;5087227;28;20216;-81
2022/11/22 01:57:18;;;;;;;7.03;2.13;;;6.70;99.90;;;;;;5086216;28;20194;-83
2022/11/22 01:59:51;;;;;;;5.37;2.10;;;6.70;99.90;;;;;;5085512;28;20672;-81
2022/11/22 02:02:17;;;;;;;8.27;2.37;;;6.70;99.90;;;;;;5086201;28;20171;-81
2022/11/22 02:04:43;;;;;;;7.57;2.90;;;6.70;99.90;;;;;;5087349;28;20203;-81
2022/11/22 02:07:20;;;;;;;4.10;1.83;;;6.70;99.90;;;;;;5085567;28;20186;-81
2022/11/22 02:09:49;;;;;;;5.10;2.00;;;6.70;99.90;;;;;;5084738;28;20170;-81
2022/11/22 02:12:17;;;;;;;5.10;2.00;;;6.80;99.90;;;;;;5087053;28;20171;-81
2022/11/22 02:14:43;;;;;;;4.93;2.03;;;6.70;99.90;;;;;;5084954;28;20182;-81
2022/11/22 02:17:09;;;;;;;5.60;1.87;;;6.70;99.90;;;;;;5085847;28;20182;-81
2022/11/22 02:19:42;;;;;;;9.00;2.20;;;6.70;99.90;;;;;;5084387;28;20191;-80
2022/11/22 02:22:15;;;;;;;5.53;1.80;;;6.80;99.90;;;;;;5085725;28;20217;-81
2022/11/22 02:24:58;;;;;;;3.00;1.90;;;6.70;99.90;;;;;;5084072;28;20204;-81
2022/11/22 02:27:24;;;;;;;3.97;1.60;;;6.70;99.90;;;;;;5085032;28;20179;-83
2022/11/22 02:29:50;;;;;;;6.93;2.43;;;6.70;99.90;;;;;;5084248;28;20170;-81
2022/11/22 02:32:15;;;;;;;5.30;1.80;;;6.70;99.90;;;;;;5085260;28;20177;-80
2022/11/22 02:34:46;;;;;;;5.13;1.87;;;6.70;99.90;;;;;;5085133;28;20181;-81
2022/11/22 02:37:21;;;;;;;7.00;2.20;;;6.60;99.90;;;;;;5084904;28;20551;-81
2022/11/22 02:39:50;;;;;;;5.87;1.90;;;6.60;99.90;;;;;;5083058;28;20246;-81
2022/11/22 02:42:15;;;;;;;6.60;2.07;;;6.60;99.90;;;;;;5086136;28;20522;-81
2022/11/22 02:44:41;;;;;;;5.97;1.80;;;6.50;99.90;;;;;;5083088;28;20199;-81
2022/11/22 02:47:06;;;;;;;3.20;1.70;;;6.60;99.90;;;;;;5083701;28;20171;-81
2022/11/22 02:49:32;;;;;;;2.77;2.10;;;6.50;99.90;;;;;;5084289;28;20171;-81
2022/11/22 02:51:58;;;;;;;3.83;1.60;;;6.50;99.90;;;;;;5083162;28;20190;-81
2022/11/22 02:54:23;;;;;;;4.97;2.10;;;6.50;99.90;;;;;;5083210;28;20179;-81
2022/11/22 02:56:49;;;;;;;4.57;1.90;;;6.50;99.90;;;;;;5083469;28;20183;-83
2022/11/22 02:59:14;;;;;;;5.93;1.90;;;6.50;99.90;;;;;;5082863;28;20257;-81
2022/11/22 03:01:41;;;;;;;6.30;2.00;;;6.30;99.90;;;;;;5081311;28;20199;-81
2022/11/22 03:04:07;;;;;;;5.23;2.00;;;6.40;99.90;;;;;;5082186;28;20203;-79
2022/11/22 03:06:32;;;;;;;6.17;1.83;;;6.40;99.90;;;;;;5082662;28;20518;-81
2022/11/22 03:08:58;;;;;;;8.03;2.07;;;6.40;99.90;;;;;;5081023;28;20179;-81
2022/11/22 03:11:23;;;;;;;4.87;1.87;;;6.40;99.90;;;;;;5082062;28;20256;-81
2022/11/22 03:13:49;;;;;;;6.97;2.13;;;6.30;99.90;;;;;;5081107;28;20273;-81
2022/11/22 03:16:15;;;;;;;7.13;1.80;;;6.30;99.90;;;;;;5082368;28;20175;-81
2022/11/22 03:18:40;;;;;;;6.37;1.87;;;6.30;99.90;;;;;;5082750;28;20179;-81
2022/11/22 03:21:08;;;;;;;3.37;1.50;;;6.30;99.90;;;;;;5082456;28;20218;-81
2022/11/22 03:23:34;;;;;;;6.27;1.70;;;6.20;99.90;;;;;;5080291;28;20203;-81
2022/11/22 03:26:07;;;;;;;8.47;1.90;;;6.20;99.90;;;;;;5081651;28;20629;-81
2022/11/22 03:28:33;;;;;;;5.27;2.20;;;6.20;99.90;;;;;;5080657;28;20191;-81
2022/11/22 03:30:58;;;;;;;5.13;1.63;;;6.10;99.90;;;;;;5080613;28;20198;-81
2022/11/22 03:33:24;;;;;;;5.90;1.50;;;6.10;99.90;;;;;;5082458;28;20544;-81
2022/11/22 03:35:53;;;;;;;4.17;1.83;;;6.10;99.90;;;;;;5082195;28;20194;-81
2022/11/22 03:38:19;;;;;;;5.67;1.67;;;6.00;99.90;;;;;;5082763;28;20186;-82
2022/11/22 03:40:47;;;;;;;5.87;1.53;;;6.00;99.90;;;;;;5081775;28;20291;-81
2022/11/22 03:43:13;;;;;;;5.83;2.00;;;6.00;99.90;;;;;;5082287;28;20224;-81
2022/11/22 03:45:47;;;;;;;7.77;1.60;;;6.00;99.90;;;;;;5081377;28;20242;-81
2022/11/22 03:48:13;;;;;;;4.73;1.73;;;6.00;99.90;;;;;;5080984;28;20231;-81
2022/11/22 03:50:39;;;;;;;5.33;1.67;;;5.90;99.90;;;;;;5081022;28;20198;-81
2022/11/22 03:53:05;;;;;;;4.50;2.07;;;5.90;99.90;;;;;;5080505;28;20206;-81
2022/11/22 03:55:30;;;;;;;3.17;1.80;;;5.90;99.90;;;;;;5080136;28;20178;-82
2022/11/22 03:57:56;;;;;;;5.50;1.40;;;5.80;99.90;;;;;;5080513;28;20645;-83
2022/11/22 04:00:22;;;;;;;8.07;1.87;;;5.80;99.90;;;;;;5080445;28;20229;-82
2022/11/22 04:02:48;;;;;;;5.87;2.33;;;5.80;99.90;;;;;;5080505;28;20232;-81
2022/11/22 04:05:14;;;;;;;8.63;1.90;;;5.80;99.90;;;;;;5078244;28;20266;-81
2022/11/22 04:07:39;;;;;;;7.63;2.27;;;5.70;99.90;;;;;;5077174;28;20586;-81
2022/11/22 04:10:06;;;;;;;5.97;1.90;;;5.80;99.90;;;;;;5079116;28;20187;-82
2022/11/22 04:12:32;;;;;;;4.63;2.20;;;5.70;99.90;;;;;;5080622;28;20225;-81
2022/11/22 04:15:06;;;;;;;8.30;2.40;;;5.70;99.90;;;;;;5082247;28;20175;-82
2022/11/22 04:17:43;;;;;;;8.67;1.70;;;5.70;99.90;;;;;;5082436;28;20550;-81
2022/11/22 04:23:11;;;;;;;5.97;1.60;;;5.70;99.90;;;;;;5083298;28;20250;-82
2022/11/22 04:25:39;;;;;;;3.50;1.70;;;5.60;99.90;;;;;;5084399;28;20205;-81
2022/11/22 04:28:06;;;;;;;9.00;1.93;;;5.70;99.90;;;;;;5081372;28;20171;-82
2022/11/22 04:33:17;;;;;;;5.20;1.90;;;5.60;99.90;;;;;;5083552;28;20213;-81
2022/11/22 04:35:44;;;;;;;6.00;2.10;;;5.60;99.90;;;;;;5082229;28;20645;-81
2022/11/22 04:38:10;;;;;;;9.57;1.87;;;5.50;99.90;;;;;;5081093;28;20174;-81
2022/11/22 04:40:36;;;;;;;7.50;1.80;;;5.50;99.90;;;;;;5082421;28;20246;-81
2022/11/22 04:45:47;;;;;;;9.07;2.13;;;5.50;99.90;;;;;;5082654;28;20523;-81
2022/11/22 04:48:12;;;;;;;4.13;1.90;;;5.40;99.90;;;;;;5082135;28;20171;-82
2022/11/22 04:53:24;;;;;;;6.53;2.07;;;5.50;99.90;;;;;;5082917;28;20185;-81
2022/11/22 04:55:50;;;;;;;5.20;1.83;;;5.50;99.90;;;;;;5081592;28;20178;-81
2022/11/22 04:58:16;;;;;;;7.90;1.90;;;5.40;99.90;;;;;;5081884;28;20187;-81
2022/11/22 05:00:42;;;;;;;7.93;1.93;;;5.40;99.90;;;;;;5081799;28;20230;-81
2022/11/22 05:03:07;;;;;;;7.23;1.80;;;5.40;99.90;;;;;;5081509;28;20192;-81
2022/11/22 05:05:38;;;;;;;8.33;1.90;;;5.40;99.90;;;;;;5081148;28;20285;-82
2022/11/22 05:08:05;;;;;;;6.57;1.83;;;5.40;99.90;;;;;;5078766;28;20175;-79
2022/11/22 05:10:55;;;;;;;11.67;2.07;;;5.40;99.90;;;;;;5079838;28;20748;-79
2022/11/22 05:13:18;;;;;;;4.90;1.90;;;5.30;99.90;;;;;;5079266;28;20194;-79
2022/11/22 05:15:43;;;;;;;12.57;2.37;;;5.30;99.90;;;;;;5079437;28;20542;-79
2022/11/22 05:18:09;;;;;;;9.80;2.40;;;5.30;99.90;;;;;;5077052;28;20185;-80
2022/11/22 05:20:35;;;;;;;11.13;2.30;;;5.30;99.90;;;;;;5077866;28;20283;-79
2022/11/22 05:25:45;;;;;;;5.37;2.10;;;5.20;99.90;;;;;;5079540;28;20166;-79
2022/11/22 05:28:11;;;;;;;5.57;1.67;;;5.20;99.90;;;;;;5078515;28;20538;-79
2022/11/22 05:30:40;;;;;;;10.73;1.90;;;5.20;99.90;;;;;;5078150;28;20278;-79
2022/11/22 05:33:06;;;;;;;7.90;1.93;;;5.20;99.90;;;;;;5076451;28;20179;-80
2022/11/22 05:35:32;;;;;;;6.67;2.03;;;5.20;99.90;;;;;;5078537;28;20539;-80
2022/11/22 05:37:57;;;;;;;6.87;2.30;;;5.20;99.90;;;;;;5079553;28;20204;-80
2022/11/22 05:40:24;;;;;;;4.97;1.60;;;5.10;99.90;;;;;;5081062;28;20202;-81
2022/11/22 05:42:49;;;;;;;8.10;2.00;;;5.10;99.90;;;;;;5081055;28;20167;-80
2022/11/22 05:45:15;;;;;;;3.97;1.90;;;5.10;99.90;;;;;;5079393;28;20230;-80
2022/11/22 05:47:40;;;;;;;4.77;1.63;;;5.10;99.90;;;;;;5078712;28;20183;-80
2022/11/22 05:50:07;;;;;;;9.40;1.80;;;5.10;99.90;;;;;;5079116;28;20293;-81
2022/11/22 05:52:33;;;;;;;9.73;1.90;;;5.10;99.90;;;;;;5079921;28;20723;-81
2022/11/22 05:54:59;;;;;;;3.53;1.50;;;5.10;99.90;;;;;;5080019;28;20184;-80
2022/11/22 05:57:24;;;;;;;6.43;1.83;;;5.00;99.90;;;;;;5080185;28;20257;-80
2022/11/22 05:59:50;;;;;;;8.23;1.57;;;5.10;99.90;;;;;;5078007;28;20179;-81
2022/11/22 06:02:16;;;;;;;8.17;2.07;;;5.00;99.90;;;;;;5079654;28;20179;-81
2022/11/22 06:04:41;;;;;;;4.87;2.33;;;5.00;99.90;;;;;;5078542;28;20198;-80
2022/11/22 06:07:07;;;;;;;10.70;2.13;;;5.00;99.90;;;;;;5078598;28;20234;-80
2022/11/22 06:09:32;;;;;;;11.87;2.37;;;5.00;99.90;;;;;;5080951;28;20175;-80
2022/11/22 06:11:58;;;;;;;12.00;2.30;;;4.90;99.90;;;;;;5079033;28;20191;-81
2022/11/22 06:14:23;;;;;;;6.33;2.13;;;5.00;99.90;;;;;;5081487;28;20239;-80
2022/11/22 06:16:50;;;;;;;10.67;2.37;;;5.00;99.90;;;;;;5080706;28;20178;-80
2022/11/22 06:19:16;;;;;;;6.37;1.77;;;4.90;99.90;;;;;;5080604;28;20182;-80
2022/11/22 06:21:42;;;;;;;7.57;1.63;;;4.90;99.90;;;;;;5084883;22;20374;-75
2022/11/22 06:24:08;;;;;;;10.03;1.97;;;4.90;99.90;;;;;;5069317;28;20235;-73
2022/11/22 06:26:33;;;;;;;7.70;1.60;;;4.90;99.90;;;;;;5054080;28;20168;-73
2022/11/22 06:28:59;;;;;;;7.90;1.80;;;4.80;99.90;;;;;;5054549;28;20172;-73
2022/11/22 06:31:26;;;;;;;5.80;2.00;;;4.80;99.90;;;;;;5052578;28;20191;-74
2022/11/22 06:33:53;;;;;;;4.03;1.83;;;4.80;99.90;;;;;;5053006;28;20172;-74
2022/11/22 06:36:22;;;;;;;2.67;1.70;;;4.80;99.90;;;;;;5053805;28;20175;-74
2022/11/22 06:38:47;;;;;;;6.30;2.03;;;4.80;99.90;;;;;;5053685;28;20250;-75
2022/11/22 06:41:19;;;;;;;9.70;2.23;;;4.80;99.90;;;;;;5053728;28;20275;-74
2022/11/22 06:43:46;;;;;;;4.50;1.70;;;4.80;99.90;;;;;;5052406;28;20191;-74
2022/11/22 06:46:12;;;;;;;4.63;1.77;;;4.80;99.90;;;;;;5053749;28;20187;-74
2022/11/22 06:48:39;;;;;;;8.83;1.80;;;4.80;99.90;;;;;;5053615;28;20275;-74
2022/11/22 06:51:19;;;;;;;8.13;1.70;;;4.80;99.90;;;;;;5053481;28;20278;-74
2022/11/22 06:53:46;;;;;;;8.87;1.60;;;4.80;99.90;;;;;;5053877;28;20259;-73
2022/11/22 06:56:14;;;;;;;10.23;1.87;;;4.70;99.90;;;;;;5053478;28;20176;-73
2022/11/22 06:58:40;;;;;;;6.53;1.90;;;4.80;99.90;;;;;;5052182;28;20175;-74
2022/11/22 07:01:11;;;;;;;12.27;1.83;;;4.70;99.90;;;;;;5053530;28;20195;-74
2022/11/22 07:03:38;;;;;;;8.63;2.03;;;4.70;99.90;;;;;;5052100;28;20234;-73
2022/11/22 07:06:05;;;;;;;5.50;1.50;;;4.70;99.90;;;;;;5053352;28;20264;-74
2022/11/22 07:08:31;;;;;;;7.50;1.50;;;4.60;99.90;;;;;;5052120;28;20174;-74
2022/11/22 07:11:08;;;;;;;6.67;1.60;;;4.70;99.90;;;;;;5053126;28;20187;-74
2022/11/22 07:13:35;;;;;;;3.63;1.33;;;4.60;99.90;;;;;;5051960;28;20202;-74
2022/11/22 07:16:03;;;;;;;7.90;1.60;;;4.50;99.90;;;;;;5053181;28;20549;-74
2022/11/22 07:18:29;;;;;;;6.87;1.60;;;4.50;99.90;;;;;;5051864;28;20548;-74
2022/11/22 07:21:05;;;;;;;7.07;1.77;;;4.50;99.90;;;;;;5053124;28;20235;-74
2022/11/22 07:23:31;;;;;;;7.67;1.70;;;4.40;99.90;;;;;;5053325;28;20260;-74
2022/11/22 07:25:56;;;;;;;4.27;1.60;;;4.40;99.90;;;;;;5053085;28;20653;-73
2022/11/22 07:28:23;;;;;;;6.43;1.83;;;4.40;99.90;;;;;;5052989;28;20218;-74
2022/11/22 07:30:48;;;;;;;8.00;2.37;;;4.40;99.90;;;;;;5053141;28;20234;-74
2022/11/22 07:33:14;;;;;;;10.47;2.23;;;4.50;99.90;;;;;;5051641;28;20601;-74
2022/11/22 07:35:39;;;;;;;7.43;1.77;;;4.40;99.90;;;;;;5053304;28;20183;-74
2022/11/22 07:38:05;;;;;;;6.50;1.73;;;4.50;99.90;;;;;;5052856;28;20175;-74
2022/11/22 07:40:30;;;;;;;5.70;1.50;;;4.50;99.90;;;;;;5051553;28;20187;-74
2022/11/22 07:42:56;;;;;;;8.83;2.00;;;4.50;99.90;;;;;;5052794;28;20168;-74
2022/11/22 07:45:22;;;;;;;5.63;2.27;;;4.60;99.90;;;;;;5051269;28;20233;-73
2022/11/22 07:47:47;;;;;;;7.33;2.60;;;4.60;99.90;;;;;;5053016;28;20217;-74
2022/11/22 07:50:13;;;;;;;14.37;2.93;;;4.60;99.90;;;;;;5052683;28;20171;-74
2022/11/22 07:52:38;;;;;;;7.60;2.10;;;4.60;99.90;;;;;;5051487;28;20236;-74
2022/11/22 07:55:08;;;;;;;6.50;1.97;;;4.60;99.90;;;;;;5051435;28;20175;-74
2022/11/22 07:57:33;;;;;;;12.07;2.20;;;4.70;99.90;;;;;;5052738;28;20178;-74
2022/11/22 07:59:59;;;;;;;16.00;2.17;;;4.70;99.90;;;;;;5052685;28;20171;-74
2022/11/22 08:02:25;;;;;;;13.73;1.93;;;4.70;99.90;;;;;;5052887;28;20294;-74
2022/11/22 08:04:51;;;;;;;14.90;3.03;;;4.80;99.90;;;;;;5051340;28;20199;-74
2022/11/22 08:07:17;;;;;;;16.67;2.10;;;4.80;99.90;;;;;;5051384;28;20645;-74
2022/11/22 08:09:42;;;;;;;9.63;1.80;;;4.80;99.90;;;;;;5052601;28;20186;-74
2022/11/22 08:12:08;;;;;;;14.70;2.90;;;4.90;99.90;;;;;;5052914;28;20206;-74
2022/11/22 08:14:34;;;;;;;8.83;1.97;;;4.90;99.90;;;;;;5052733;28;20176;-74
2022/11/22 08:17:00;;;;;;;12.00;2.53;;;4.90;99.90;;;;;;5052573;28;20175;-73
2022/11/22 08:19:26;;;;;;;8.53;2.07;;;5.00;99.90;;;;;;5052518;28;20614;-74
2022/11/22 08:21:52;;;;;;;9.80;2.33;;;5.00;99.90;;;;;;5052317;28;20590;-74
2022/11/22 08:24:17;;;;;;;6.77;2.13;;;5.00;99.90;;;;;;5052377;28;20199;-74
2022/11/22 08:26:42;;;;;;;5.60;1.97;;;5.10;99.90;;;;;;5052106;28;20172;-75
2022/11/22 08:29:10;;;;;;;14.20;2.30;;;5.10;99.90;;;;;;5051962;28;20203;-73
2022/11/22 08:31:37;;;;;;;11.30;2.50;;;5.20;99.90;;;;;;5052371;28;20195;-74
2022/11/22 08:34:02;;;;;;;13.10;2.17;;;5.20;99.90;;;;;;5051088;28;20184;-74
2022/11/22 08:36:28;;;;;;;8.97;1.63;;;5.30;99.90;;;;;;5052381;28;20176;-74
2022/11/22 08:38:54;;;;;;;6.03;1.50;;;5.30;99.90;;;;;;5052589;28;20187;-74
2022/11/22 08:41:20;;;;;;;12.43;2.33;;;5.30;99.90;;;;;;5050929;28;20222;-74
2022/11/22 08:43:49;;;;;;;15.87;2.47;;;5.40;99.90;;;;;;5050959;28;20234;-74
2022/11/22 08:46:15;;;;;;;9.23;2.43;;;5.50;99.90;;;;;;5052252;28;20175;-74
2022/11/22 08:48:40;;;;;;;5.03;1.60;;;5.50;99.90;;;;;;5052225;28;20168;-74
2022/11/22 08:51:08;;;;;;;6.77;1.93;;;5.60;99.90;;;;;;5050809;28;20230;-74
2022/11/22 08:53:36;;;;;;;10.63;1.67;;;5.60;99.90;;;;;;5052215;28;20735;-74
2022/11/22 08:56:04;;;;;;;19.43;2.70;;;5.70;99.90;;;;;;5050977;28;20175;-74
2022/11/22 08:58:31;;;;;;;6.30;1.90;;;5.80;99.90;;;;;;5053514;28;20187;-74
2022/11/22 09:01:06;;;;;;;5.00;2.47;;;5.80;99.90;;;;;;5054444;28;20229;-74
2022/11/22 09:03:33;;;;;;;8.27;2.07;;;5.90;99.90;;;;;;5054439;28;20290;-73
2022/11/22 09:06:00;;;;;;;8.43;2.13;;;5.90;99.90;;;;;;5054441;28;20175;-74
2022/11/22 09:08:26;;;;;;;10.43;2.13;;;6.00;99.90;;;;;;5055870;28;20168;-74
2022/11/22 09:10:51;;;;;;;7.53;1.80;;;6.00;99.90;;;;;;5055777;28;20673;-73
2022/11/22 09:13:17;;;;;;;4.57;1.80;;;6.00;99.90;;;;;;5054229;28;20171;-74
2022/11/22 09:15:42;;;;;;;7.90;2.30;;;6.10;99.90;;;;;;5055596;28;20267;-74
2022/11/22 09:18:08;;;;;;;8.87;1.80;;;6.20;99.90;;;;;;5055526;28;20301;-74
2022/11/22 09:20:33;;;;;;;10.37;2.27;;;6.20;99.90;;;;;;5053849;28;20310;-74
2022/11/22 09:23:01;;;;;;;10.93;1.70;;;6.30;99.90;;;;;;5055628;28;20222;-74
2022/11/22 09:25:27;;;;;;;6.43;1.63;;;6.30;99.90;;;;;;5055216;28;20195;-74
2022/11/22 09:27:52;;;;;;;8.40;2.00;;;6.40;99.90;;;;;;5053994;28;20182;-74
2022/11/22 09:30:19;;;;;;;7.33;2.00;;;6.40;99.90;;;;;;5055092;28;20250;-74
2022/11/22 09:32:45;;;;;;;8.17;1.47;;;6.40;99.90;;;;;;5055170;28;20701;-74
2022/11/22 09:35:10;;;;;;;6.20;1.60;;;6.40;99.90;;;;;;5055402;28;20282;-74
2022/11/22 09:37:36;;;;;;;12.03;1.97;;;6.40;99.90;;;;;;5055523;28;20186;-74
2022/11/22 09:40:02;;;;;;;6.70;1.47;;;6.50;99.90;;;;;;5055228;28;20225;-74
2022/11/22 09:42:49;;;;;;;5.23;1.67;;;6.50;99.90;;;;;;5055217;28;20179;-73
2022/11/22 09:45:52;;;;;;;5.80;1.70;;;6.60;99.90;;;;;;5054846;28;20191;-74
2022/11/22 09:48:36;;;;;;;5.33;1.63;;;6.70;99.90;;;;;;5054875;28;20179;-73
2022/11/22 09:51:13;;;;;;;7.87;1.30;;;6.80;99.90;;;;;;5054766;28;20188;-74
2022/11/22 09:54:05;;;;;;;11.60;1.50;;;6.90;99.90;;;;;;5055068;28;20165;-73
2022/11/22 09:56:32;;;;;;;2.83;1.67;;;6.90;99.90;;;;;;5055365;28;20156;-74
2022/11/22 09:59:10;;;;;;;6.23;1.23;;;7.00;99.90;;;;;;5054691;28;20580;-74
2022/11/22 10:01:44;;;;;;;7.73;1.37;;;7.00;99.90;;;;;;5054576;28;20275;-74
2022/11/22 10:04:13;;;;;;;8.90;1.67;;;7.10;99.90;;;;;;5054496;28;20214;-74
2022/11/22 10:06:51;;;;;;;8.93;1.60;;;7.10;99.90;;;;;;5053203;28;20233;-74
2022/11/22 10:09:31;;;;;;;4.50;1.30;;;7.20;99.90;;;;;;5054675;28;20183;-74
2022/11/22 10:12:22;;;;;;;6.00;1.20;;;7.20;99.90;;;;;;5054475;28;20198;-74
2022/11/22 10:15:13;;;;;;;7.30;1.70;;;7.20;99.90;;;;;;5054517;28;20171;-74
2022/11/22 10:17:44;;;;;;;7.97;1.87;;;7.30;99.90;;;;;;5054364;28;20573;-74
2022/11/22 10:20:25;;;;;;;8.73;1.60;;;7.30;99.90;;;;;;5053984;28;20179;-74
2022/11/22 10:22:51;;;;;;;7.07;1.47;;;7.40;99.90;;;;;;5054427;28;20177;-74
2022/11/22 10:25:21;;;;;;;4.23;1.60;;;7.40;99.90;;;;;;5052809;28;20294;-74
2022/11/22 10:27:56;;;;;;;5.40;1.40;;;7.40;99.90;;;;;;5054373;28;20259;-74
2022/11/22 10:30:24;;;;;;;8.03;1.60;;;7.50;99.90;;;;;;5052685;28;20238;-74
2022/11/22 10:33:22;;;;;;;2.60;1.03;;;7.50;99.90;;;;;;5052751;28;20183;-74
2022/11/22 10:35:54;;;;;;;4.00;1.03;;;7.60;99.90;;;;;;5052669;28;20633;-74
2022/11/22 10:38:40;;;;;;;4.63;1.20;;;7.60;99.90;;;;;;5053928;28;20581;-74
2022/11/22 10:41:21;;;;;;;3.93;0.90;;;7.60;99.90;;;;;;5053928;28;20206;-74
2022/11/22 10:44:20;;;;;;;3.93;1.30;;;7.60;99.90;;;;;;5053999;28;20187;-74
2022/11/22 10:47:04;;;;;;;4.87;1.10;;;7.60;99.90;;;;;;5053737;28;20160;-74
2022/11/22 10:49:57;;;;;;;3.30;1.10;;;7.50;99.90;;;;;;5053970;28;20629;-74
2022/11/22 10:52:45;;;;;;;2.17;0.80;;;7.50;99.90;;;;;;5052642;28;20199;-74
2022/11/22 10:55:38;;;;;;;2.33;0.77;;;7.50;99.90;;;;;;5052387;28;20186;-74
2022/11/22 10:58:25;;;;;;;6.13;1.27;;;7.50;99.90;;;;;;5053555;28;20190;-74
2022/11/22 11:01:03;;;;;;;1.90;1.13;;;7.50;99.90;;;;;;5053395;28;20688;-74
2022/11/22 11:03:40;;;;;;;4.73;1.30;;;7.50;99.90;;;;;;5052064;28;20224;-74
2022/11/22 11:06:27;;;;;;;3.43;1.20;;;7.60;99.90;;;;;;5053657;28;20155;-74
2022/11/22 11:08:56;;;;;;;1.80;0.83;;;7.60;99.90;;;;;;5053688;28;20170;-74
2022/11/22 11:11:25;;;;;;;6.20;1.17;;;7.70;99.90;;;;;;5053220;28;20195;-75
2022/11/22 11:13:55;;;;;;;4.27;1.23;;;7.80;99.90;;;;;;5053223;28;20182;-74
2022/11/22 11:16:25;;;;;;;2.93;1.10;;;7.80;99.90;;;;;;5053518;28;20168;-74
2022/11/22 11:19:12;;;;;;;2.97;0.63;;;7.90;99.90;;;;;;5053243;28;20167;-74
2022/11/22 11:21:38;;;;;;;5.13;0.90;;;7.90;99.90;;;;;;5052456;28;20214;-74
2022/11/22 11:24:11;;;;;;;4.43;1.10;;;8.00;99.90;;;;;;5053316;28;20211;-74
2022/11/22 11:26:36;;;;;;;3.67;1.10;;;8.10;99.90;;;;;;5053098;28;20596;-75
2022/11/22 11:29:17;;;;;;;3.63;0.87;;;8.20;99.90;;;;;;5051768;28;20211;-74
2022/11/22 11:31:48;;;;;;;8.67;1.40;;;8.20;99.90;;;;;;5051695;28;20199;-74
2022/11/22 11:34:19;;;;;;;3.60;0.87;;;8.30;99.90;;;;;;5051714;28;20172;-75
2022/11/22 11:36:45;;;;;;;4.00;1.10;;;8.30;99.90;;;;;;5051662;28;20672;-74
2022/11/22 11:39:21;;;;;;;4.00;1.10;;;8.40;99.90;;;;;;5053199;28;20191;-74
2022/11/22 11:41:47;;;;;;;2.90;1.00;;;8.40;99.90;;;;;;5053014;28;20195;-74
2022/11/22 11:44:30;;;;;;;5.97;1.17;;;8.40;99.90;;;;;;5052823;28;20266;-74
2022/11/22 11:46:57;;;;;;;5.70;0.77;;;8.30;99.90;;;;;;5051891;28;20565;-74
2022/11/22 11:49:30;;;;;;;1.60;0.80;;;8.30;99.90;;;;;;5052823;28;20546;-74
2022/11/22 11:51:58;;;;;;;3.70;0.80;;;8.20;99.90;;;;;;5052671;28;20236;-74
2022/11/22 11:54:34;;;;;;;2.63;0.70;;;8.20;99.90;;;;;;5052714;28;20171;-74
2022/11/22 11:57:04;;;;;;;2.17;0.83;;;8.20;99.90;;;;;;5053058;28;20258;-74
2022/11/22 11:59:38;;;;;;;2.20;0.80;;;8.20;99.90;;;;;;5052683;28;20526;-74
2022/11/22 12:02:15;;;;;;;5.00;1.00;;;8.30;99.90;;;;;;5052623;28;20205;-74
2022/11/22 12:04:50;;;;;;;4.10;0.80;;;8.40;99.90;;;;;;5053506;28;20543;-74
2022/11/22 12:07:18;;;;;;;3.87;0.80;;;8.50;99.90;;;;;;5051408;28;20205;-75
2022/11/22 12:09:45;;;;;;;1.90;0.63;;;8.60;99.90;;;;;;5052618;28;20179;-74
2022/11/22 12:12:16;;;;;;;3.97;0.83;;;8.70;99.90;;;;;;5052536;28;20692;-74
2022/11/22 12:14:46;;;;;;;2.47;0.73;;;8.70;99.90;;;;;;5052703;28;20159;-74
2022/11/22 12:17:25;;;;;;;2.13;0.90;;;8.70;99.90;;;;;;5052891;28;20243;-75
2022/11/22 12:20:07;;;;;;;2.80;0.93;;;8.70;99.90;;;;;;5052996;28;20159;-75
2022/11/22 12:23:13;;;;;;;3.90;0.90;;;8.70;99.90;;;;;;5100618;22;20312;-80
2022/11/22 12:25:39;;;;;;;2.33;0.60;;;8.70;99.90;;;;;;5078908;28;20280;-79
2022/11/22 12:28:18;;;;;;;3.97;0.90;;;8.70;99.90;;;;;;5078916;28;20252;-80
2022/11/22 12:30:49;;;;;;;1.40;0.50;;;8.70;99.90;;;;;;5077884;28;20159;-80
2022/11/22 12:33:42;;;;;;;2.37;0.70;;;8.70;99.90;;;;;;5081536;28;20155;-80
2022/11/22 12:36:39;;;;;;;1.63;0.77;;;8.70;99.90;;;;;;5082617;28;20166;-80
2022/11/22 12:39:09;;;;;;;5.20;1.03;;;8.70;99.90;;;;;;5046407;28;20285;-80
2022/11/22 12:41:36;;;;;;;3.47;0.60;;;8.70;99.90;;;;;;5079252;28;20191;-79
2022/11/22 12:44:04;;;;;;;2.93;0.90;;;8.70;99.90;;;;;;5081218;28;20203;-81
2022/11/22 12:46:39;;;;;;;1.70;0.67;;;8.80;99.90;;;;;;5084915;28;20228;-81
2022/11/22 12:49:11;;;;;;;2.57;0.70;;;8.80;99.90;;;;;;5084359;28;20154;-80
2022/11/22 12:51:46;;;;;;;1.50;0.60;;;8.80;99.90;;;;;;5086057;28;20183;-80
2022/11/22 12:54:22;;;;;;;1.20;0.60;;;8.80;99.90;;;;;;5080371;28;20268;-80
2022/11/22 12:56:55;;;;;;;2.57;0.47;;;8.80;99.90;;;;;;5083557;28;20159;-80
2022/11/22 12:59:57;;;;;;;1.00;0.50;;;8.80;99.90;;;;;;5082949;28;20232;-81
2022/11/22 13:02:47;;;;;;;1.73;0.43;;;8.80;99.90;;;;;;5079999;28;20201;-80
2022/11/22 13:05:35;;;;;;;0.70;0.40;;;8.80;99.90;;;;;;5080474;28;20205;-80
2022/11/22 13:08:29;;;;;;;3.33;1.00;;;8.70;99.90;;;;;;5082175;28;20158;-80
2022/11/22 13:11:18;;;;;;;2.33;0.73;;;8.80;99.90;;;;;;5080053;28;20199;-79
2022/11/22 13:13:51;;;;;;;2.43;0.90;;;8.70;99.90;;;;;;5079883;28;20163;-81
2022/11/22 13:16:16;;;;;;;2.37;0.97;;;8.70;99.90;;;;;;5080233;28;20170;-80
2022/11/22 13:18:48;;;;;;;1.50;0.60;;;8.90;99.90;;;;;;5081240;28;20248;-81
2022/11/22 13:21:24;;;;;;;2.13;0.60;;;8.70;99.90;;;;;;5081199;28;20215;-83
2022/11/22 13:24:18;;;;;;;2.27;0.60;;;8.70;99.90;;;;;;5080666;28;20186;-83